sensor_id;sensor_type;location;lat;lon;timestamp;pressure;altitude;pressure_sealevel;temperature;humidity
37291;BME280;23175;-33.706;151.094;2023-03-01T00:02:17;98998.88;;;20.91;39.65
37291;BME280;23175;-33.706;151.094;2023-03-01T00:04:47;99001.61;;;20.11;40.82
37291;BME280;23175;-33.706;151.094;2023-03-01T00:07:17;99006.51;;;21.28;38.91
37291;BME280;23175;-33.706;151.094;2023-03-01T00:09:48;99008.01;;;21.44;39.29
37291;BME280;23175;-33.706;151.094;2023-03-01T00:12:18;99000.69;;;20.13;41.04
37291;BME280;23175;-33.706;151.094;2023-03-01T00:14:48;99007.56;;;22.44;38.14
37291;BME280;23175;-33.706;151.094;2023-03-01T00:17:18;99005.18;;;19.83;41.76
37291;BME280;23175;-33.706;151.094;2023-03-01T00:19:48;99010.95;;;21.18;38.71
37291;BME280;23175;-33.706;151.094;2023-03-01T00:22:19;99003.86;;;21.79;37.62
37291;BME280;23175;-33.706;151.094;2023-03-01T00:24:49;99006.08;;;21.97;37.38
37291;BME280;23175;-33.706;151.094;2023-03-01T00:27:19;99006.61;;;20.56;39.42
37291;BME280;23175;-33.706;151.094;2023-03-01T00:29:49;99000.64;;;21.79;38.77
37291;BME280;23175;-33.706;151.094;2023-03-01T00:32:20;99004.99;;;21.48;36.80
37291;BME280;23175;-33.706;151.094;2023-03-01T00:34:50;98996.74;;;21.53;36.24
37291;BME280;23175;-33.706;151.094;2023-03-01T00:37:20;98985.61;;;21.86;37.63
37291;BME280;23175;-33.706;151.094;2023-03-01T00:39:51;98985.77;;;22.76;34.94
37291;BME280;23175;-33.706;151.094;2023-03-01T00:42:20;98986.26;;;21.18;35.30
37291;BME280;23175;-33.706;151.094;2023-03-01T00:44:51;98983.57;;;21.47;35.04
37291;BME280;23175;-33.706;151.094;2023-03-01T00:47:21;98978.84;;;21.21;35.94
37291;BME280;23175;-33.706;151.094;2023-03-01T00:49:51;98968.84;;;22.17;34.81
37291;BME280;23175;-33.706;151.094;2023-03-01T00:52:21;98970.64;;;22.27;35.35
37291;BME280;23175;-33.706;151.094;2023-03-01T00:54:54;98965.76;;;23.12;33.16
37291;BME280;23175;-33.706;151.094;2023-03-01T00:57:24;98966.73;;;22.42;34.66
37291;BME280;23175;-33.706;151.094;2023-03-01T01:00:01;98965.24;;;21.98;35.94
37291;BME280;23175;-33.706;151.094;2023-03-01T01:02:32;98963.38;;;22.91;36.50
37291;BME280;23175;-33.706;151.094;2023-03-01T01:05:02;98964.26;;;22.96;36.05
37291;BME280;23175;-33.706;151.094;2023-03-01T01:07:32;98960.78;;;22.09;35.83
37291;BME280;23175;-33.706;151.094;2023-03-01T01:10:03;98950.59;;;23.63;34.53
37291;BME280;23175;-33.706;151.094;2023-03-01T01:12:34;98950.03;;;22.53;36.55
37291;BME280;23175;-33.706;151.094;2023-03-01T01:15:04;98950.73;;;22.95;36.58
37291;BME280;23175;-33.706;151.094;2023-03-01T01:17:34;98951.05;;;22.43;36.76
37291;BME280;23175;-33.706;151.094;2023-03-01T01:20:05;98951.00;;;22.32;36.42
37291;BME280;23175;-33.706;151.094;2023-03-01T01:22:35;98954.99;;;22.02;38.01
37291;BME280;23175;-33.706;151.094;2023-03-01T01:25:05;98955.08;;;21.93;37.48
37291;BME280;23175;-33.706;151.094;2023-03-01T01:27:36;98954.15;;;22.75;34.84
37291;BME280;23175;-33.706;151.094;2023-03-01T01:30:07;98952.31;;;22.09;36.08
37291;BME280;23175;-33.706;151.094;2023-03-01T01:32:37;98945.93;;;23.96;33.49
37291;BME280;23175;-33.706;151.094;2023-03-01T01:35:07;98945.43;;;24.21;33.53
37291;BME280;23175;-33.706;151.094;2023-03-01T01:37:37;98948.16;;;24.58;33.14
37291;BME280;23175;-33.706;151.094;2023-03-01T01:40:09;98949.77;;;25.01;32.31
37291;BME280;23175;-33.706;151.094;2023-03-01T01:42:39;98943.85;;;24.33;31.91
37291;BME280;23175;-33.706;151.094;2023-03-01T01:45:43;98940.20;;;21.95;34.98
37291;BME280;23175;-33.706;151.094;2023-03-01T01:48:16;98932.34;;;25.21;32.40
37291;BME280;23175;-33.706;151.094;2023-03-01T01:50:47;98933.19;;;25.54;30.76
37291;BME280;23175;-33.706;151.094;2023-03-01T01:53:21;98930.53;;;23.20;28.43
37291;BME280;23175;-33.706;151.094;2023-03-01T01:55:55;98933.04;;;24.13;29.44
37291;BME280;23175;-33.706;151.094;2023-03-01T01:58:28;98934.34;;;25.34;29.45
37291;BME280;23175;-33.706;151.094;2023-03-01T02:01:00;98933.22;;;25.55;30.60
37291;BME280;23175;-33.706;151.094;2023-03-01T02:03:32;98934.63;;;22.80;32.21
37291;BME280;23175;-33.706;151.094;2023-03-01T02:06:06;98934.80;;;22.26;31.23
37291;BME280;23175;-33.706;151.094;2023-03-01T02:08:40;98933.38;;;23.69;29.97
37291;BME280;23175;-33.706;151.094;2023-03-01T02:11:12;98937.60;;;22.57;42.09
37291;BME280;23175;-33.706;151.094;2023-03-01T02:13:43;98942.06;;;22.76;43.65
37291;BME280;23175;-33.706;151.094;2023-03-01T02:16:15;98949.83;;;21.87;45.40
37291;BME280;23175;-33.706;151.094;2023-03-01T02:18:46;98946.76;;;23.86;42.91
37291;BME280;23175;-33.706;151.094;2023-03-01T02:21:27;98949.28;;;22.11;46.28
37291;BME280;23175;-33.706;151.094;2023-03-01T02:24:02;98950.48;;;22.49;45.38
37291;BME280;23175;-33.706;151.094;2023-03-01T02:26:40;98957.07;;;21.14;47.56
37291;BME280;23175;-33.706;151.094;2023-03-01T02:29:11;98956.39;;;21.77;46.92
37291;BME280;23175;-33.706;151.094;2023-03-01T02:31:41;98959.88;;;25.19;41.58
37291;BME280;23175;-33.706;151.094;2023-03-01T02:34:14;98959.71;;;23.32;44.44
37291;BME280;23175;-33.706;151.094;2023-03-01T02:36:47;98962.95;;;21.52;46.19
37291;BME280;23175;-33.706;151.094;2023-03-01T02:39:21;98956.95;;;23.09;43.49
37291;BME280;23175;-33.706;151.094;2023-03-01T02:41:54;98960.44;;;23.50;44.02
37291;BME280;23175;-33.706;151.094;2023-03-01T02:44:26;98952.06;;;23.88;42.24
37291;BME280;23175;-33.706;151.094;2023-03-01T02:46:58;98950.62;;;23.15;44.22
37291;BME280;23175;-33.706;151.094;2023-03-01T02:49:32;98953.59;;;21.33;44.67
37291;BME280;23175;-33.706;151.094;2023-03-01T02:52:14;98956.70;;;22.44;43.24
37291;BME280;23175;-33.706;151.094;2023-03-01T02:54:50;98951.13;;;24.25;40.71
37291;BME280;23175;-33.706;151.094;2023-03-01T02:57:21;98951.72;;;23.21;43.32
37291;BME280;23175;-33.706;151.094;2023-03-01T02:59:52;98948.68;;;21.11;45.24
37291;BME280;23175;-33.706;151.094;2023-03-01T03:02:27;98948.15;;;22.78;43.57
37291;BME280;23175;-33.706;151.094;2023-03-01T03:04:57;98948.30;;;23.61;41.95
37291;BME280;23175;-33.706;151.094;2023-03-01T03:07:27;98945.26;;;23.43;41.78
37291;BME280;23175;-33.706;151.094;2023-03-01T03:09:57;98946.61;;;23.90;41.87
37291;BME280;23175;-33.706;151.094;2023-03-01T03:12:28;98960.23;;;22.86;44.25
37291;BME280;23175;-33.706;151.094;2023-03-01T03:14:58;98954.08;;;21.08;44.30
37291;BME280;23175;-33.706;151.094;2023-03-01T03:17:29;98951.85;;;24.86;38.89
37291;BME280;23175;-33.706;151.094;2023-03-01T03:19:58;98952.17;;;25.06;38.68
37291;BME280;23175;-33.706;151.094;2023-03-01T03:22:29;98956.23;;;23.36;39.45
37291;BME280;23175;-33.706;151.094;2023-03-01T03:24:59;98957.18;;;24.91;36.43
37291;BME280;23175;-33.706;151.094;2023-03-01T03:27:30;98959.71;;;23.26;37.37
37291;BME280;23175;-33.706;151.094;2023-03-01T03:30:00;98960.06;;;23.38;36.95
37291;BME280;23175;-33.706;151.094;2023-03-01T03:32:31;98961.28;;;23.80;37.29
37291;BME280;23175;-33.706;151.094;2023-03-01T03:35:02;98958.02;;;22.63;38.18
37291;BME280;23175;-33.706;151.094;2023-03-01T03:37:32;98957.61;;;23.47;38.18
37291;BME280;23175;-33.706;151.094;2023-03-01T03:40:02;98956.51;;;22.24;39.36
37291;BME280;23175;-33.706;151.094;2023-03-01T03:42:33;98953.27;;;23.83;36.48
37291;BME280;23175;-33.706;151.094;2023-03-01T03:45:03;98948.27;;;23.47;38.21
37291;BME280;23175;-33.706;151.094;2023-03-01T03:47:33;98953.24;;;22.35;38.20
37291;BME280;23175;-33.706;151.094;2023-03-01T03:50:03;98952.99;;;23.47;36.95
37291;BME280;23175;-33.706;151.094;2023-03-01T03:52:33;98950.23;;;22.23;40.53
37291;BME280;23175;-33.706;151.094;2023-03-01T03:55:04;98945.19;;;23.64;37.77
37291;BME280;23175;-33.706;151.094;2023-03-01T03:57:33;98948.00;;;22.18;39.48
37291;BME280;23175;-33.706;151.094;2023-03-01T04:00:05;98946.99;;;25.00;36.32
37291;BME280;23175;-33.706;151.094;2023-03-01T04:02:35;98950.59;;;24.15;37.82
37291;BME280;23175;-33.706;151.094;2023-03-01T04:05:07;98952.34;;;24.18;40.06
37291;BME280;23175;-33.706;151.094;2023-03-01T04:07:38;98970.36;;;21.61;45.15
37291;BME280;23175;-33.706;151.094;2023-03-01T04:10:12;98971.96;;;22.16;46.06
37291;BME280;23175;-33.706;151.094;2023-03-01T04:12:42;98973.30;;;22.29;47.00
37291;BME280;23175;-33.706;151.094;2023-03-01T04:15:13;98990.61;;;22.26;47.60
37291;BME280;23175;-33.706;151.094;2023-03-01T04:17:45;98979.39;;;21.80;47.96
37291;BME280;23175;-33.706;151.094;2023-03-01T04:20:18;98975.23;;;21.41;48.26
37291;BME280;23175;-33.706;151.094;2023-03-01T04:22:48;98973.41;;;20.80;49.64
37291;BME280;23175;-33.706;151.094;2023-03-01T04:25:18;98975.64;;;21.68;47.33
37291;BME280;23175;-33.706;151.094;2023-03-01T04:27:49;98971.01;;;20.60;48.56
37291;BME280;23175;-33.706;151.094;2023-03-01T04:30:19;98977.71;;;20.22;48.76
37291;BME280;23175;-33.706;151.094;2023-03-01T04:32:49;98987.01;;;19.92;49.47
37291;BME280;23175;-33.706;151.094;2023-03-01T04:35:19;98985.28;;;20.75;46.63
37291;BME280;23175;-33.706;151.094;2023-03-01T04:37:49;98991.85;;;20.57;45.48
37291;BME280;23175;-33.706;151.094;2023-03-01T04:40:19;98991.75;;;22.36;42.28
37291;BME280;23175;-33.706;151.094;2023-03-01T04:42:49;98994.64;;;21.81;42.37
37291;BME280;23175;-33.706;151.094;2023-03-01T04:45:20;98993.18;;;20.94;42.48
37291;BME280;23175;-33.706;151.094;2023-03-01T04:47:50;98992.49;;;21.35;42.13
37291;BME280;23175;-33.706;151.094;2023-03-01T04:50:20;98985.51;;;20.78;43.16
37291;BME280;23175;-33.706;151.094;2023-03-01T04:52:51;98982.03;;;20.77;43.35
37291;BME280;23175;-33.706;151.094;2023-03-01T04:55:21;98987.59;;;21.82;41.95
37291;BME280;23175;-33.706;151.094;2023-03-01T04:57:53;98991.11;;;21.85;42.78
37291;BME280;23175;-33.706;151.094;2023-03-01T05:00:25;98990.30;;;20.23;43.32
37291;BME280;23175;-33.706;151.094;2023-03-01T05:02:57;98998.51;;;21.50;42.26
37291;BME280;23175;-33.706;151.094;2023-03-01T05:05:33;99008.55;;;19.98;44.86
37291;BME280;23175;-33.706;151.094;2023-03-01T05:08:06;99004.26;;;19.99;44.95
37291;BME280;23175;-33.706;151.094;2023-03-01T05:10:37;98999.25;;;19.05;45.97
37291;BME280;23175;-33.706;151.094;2023-03-01T05:13:07;99006.91;;;21.93;43.31
37291;BME280;23175;-33.706;151.094;2023-03-01T05:15:37;99011.46;;;21.03;43.46
37291;BME280;23175;-33.706;151.094;2023-03-01T05:18:07;99006.67;;;20.19;45.39
37291;BME280;23175;-33.706;151.094;2023-03-01T05:20:38;99009.77;;;20.02;45.91
37291;BME280;23175;-33.706;151.094;2023-03-01T05:23:08;99009.88;;;20.43;45.45
37291;BME280;23175;-33.706;151.094;2023-03-01T05:25:38;99019.30;;;21.66;43.93
37291;BME280;23175;-33.706;151.094;2023-03-01T05:28:11;99012.95;;;19.85;47.85
37291;BME280;23175;-33.706;151.094;2023-03-01T05:30:42;99019.18;;;20.89;45.58
37291;BME280;23175;-33.706;151.094;2023-03-01T05:33:12;99020.99;;;22.07;44.30
37291;BME280;23175;-33.706;151.094;2023-03-01T05:35:43;99017.59;;;19.81;47.44
37291;BME280;23175;-33.706;151.094;2023-03-01T05:38:14;99027.13;;;22.18;43.74
37291;BME280;23175;-33.706;151.094;2023-03-01T05:40:47;99033.81;;;20.02;46.89
37291;BME280;23175;-33.706;151.094;2023-03-01T05:43:18;99035.41;;;20.83;45.89
37291;BME280;23175;-33.706;151.094;2023-03-01T05:45:49;99039.44;;;20.26;47.28
37291;BME280;23175;-33.706;151.094;2023-03-01T05:48:19;99040.59;;;18.62;49.63
37291;BME280;23175;-33.706;151.094;2023-03-01T05:50:49;99043.66;;;19.38;49.01
37291;BME280;23175;-33.706;151.094;2023-03-01T05:53:21;99058.10;;;18.99;51.09
37291;BME280;23175;-33.706;151.094;2023-03-01T05:55:51;99064.89;;;19.53;49.36
37291;BME280;23175;-33.706;151.094;2023-03-01T05:58:21;99061.44;;;19.47;49.02
37291;BME280;23175;-33.706;151.094;2023-03-01T06:00:53;99065.51;;;20.08;48.51
37291;BME280;23175;-33.706;151.094;2023-03-01T06:03:23;99069.01;;;19.49;48.88
37291;BME280;23175;-33.706;151.094;2023-03-01T06:05:57;99069.49;;;19.38;50.26
37291;BME280;23175;-33.706;151.094;2023-03-01T06:08:28;99077.95;;;20.75;48.69
37291;BME280;23175;-33.706;151.094;2023-03-01T06:10:57;99074.08;;;19.25;51.34
37291;BME280;23175;-33.706;151.094;2023-03-01T06:13:28;99074.79;;;19.57;50.29
37291;BME280;23175;-33.706;151.094;2023-03-01T06:15:59;99081.28;;;19.24;51.10
37291;BME280;23175;-33.706;151.094;2023-03-01T06:18:30;99080.12;;;21.04;49.20
37291;BME280;23175;-33.706;151.094;2023-03-01T06:21:00;99088.12;;;20.31;49.79
37291;BME280;23175;-33.706;151.094;2023-03-01T06:23:31;99086.48;;;20.42;50.17
37291;BME280;23175;-33.706;151.094;2023-03-01T06:26:04;99094.58;;;19.10;52.97
37291;BME280;23175;-33.706;151.094;2023-03-01T06:28:35;99086.74;;;19.02;53.15
37291;BME280;23175;-33.706;151.094;2023-03-01T06:31:05;99092.39;;;20.08;51.47
37291;BME280;23175;-33.706;151.094;2023-03-01T06:33:35;99107.66;;;17.98;54.49
37291;BME280;23175;-33.706;151.094;2023-03-01T06:36:07;99108.48;;;19.67;51.71
37291;BME280;23175;-33.706;151.094;2023-03-01T06:38:37;99108.29;;;20.06;51.55
37291;BME280;23175;-33.706;151.094;2023-03-01T06:41:07;99105.12;;;18.97;52.95
37291;BME280;23175;-33.706;151.094;2023-03-01T06:43:37;99117.52;;;17.97;55.64
37291;BME280;23175;-33.706;151.094;2023-03-01T06:46:08;99117.17;;;18.38;55.12
37291;BME280;23175;-33.706;151.094;2023-03-01T06:48:38;99112.58;;;19.24;53.47
37291;BME280;23175;-33.706;151.094;2023-03-01T06:51:08;99114.48;;;21.25;50.42
37291;BME280;23175;-33.706;151.094;2023-03-01T06:53:39;99124.59;;;18.89;54.76
37291;BME280;23175;-33.706;151.094;2023-03-01T06:56:09;99129.24;;;17.69;57.19
37291;BME280;23175;-33.706;151.094;2023-03-01T06:58:40;99137.57;;;18.36;55.91
37291;BME280;23175;-33.706;151.094;2023-03-01T07:01:11;99131.12;;;18.68;55.48
37291;BME280;23175;-33.706;151.094;2023-03-01T07:03:41;99132.24;;;19.12;55.27
37291;BME280;23175;-33.706;151.094;2023-03-01T07:06:11;99133.98;;;20.05;53.46
37291;BME280;23175;-33.706;151.094;2023-03-01T07:08:41;99146.99;;;17.46;58.64
37291;BME280;23175;-33.706;151.094;2023-03-01T07:11:11;99143.78;;;20.96;52.44
37291;BME280;23175;-33.706;151.094;2023-03-01T07:13:42;99159.20;;;19.66;54.80
37291;BME280;23175;-33.706;151.094;2023-03-01T07:16:12;99158.14;;;19.47;55.26
37291;BME280;23175;-33.706;151.094;2023-03-01T07:18:42;99169.72;;;18.36;57.63
37291;BME280;23175;-33.706;151.094;2023-03-01T07:21:14;99160.05;;;18.65;56.83
37291;BME280;23175;-33.706;151.094;2023-03-01T07:23:46;99156.62;;;20.35;54.16
37291;BME280;23175;-33.706;151.094;2023-03-01T07:26:16;99153.97;;;19.53;55.34
37291;BME280;23175;-33.706;151.094;2023-03-01T07:28:46;99163.23;;;19.40;55.31
37291;BME280;23175;-33.706;151.094;2023-03-01T07:31:16;99167.79;;;20.02;54.01
37291;BME280;23175;-33.706;151.094;2023-03-01T07:33:47;99172.33;;;18.00;58.07
37291;BME280;23175;-33.706;151.094;2023-03-01T07:36:17;99181.64;;;18.66;57.05
37291;BME280;23175;-33.706;151.094;2023-03-01T07:38:47;99181.89;;;19.54;55.37
37291;BME280;23175;-33.706;151.094;2023-03-01T07:41:17;99180.76;;;19.50;55.40
37291;BME280;23175;-33.706;151.094;2023-03-01T07:43:47;99184.71;;;18.88;57.51
37291;BME280;23175;-33.706;151.094;2023-03-01T07:46:17;99190.93;;;18.41;56.68
37291;BME280;23175;-33.706;151.094;2023-03-01T07:48:48;99200.95;;;19.51;56.48
37291;BME280;23175;-33.706;151.094;2023-03-01T07:51:17;99195.43;;;19.14;54.61
37291;BME280;23175;-33.706;151.094;2023-03-01T07:53:48;99203.10;;;18.73;55.93
37291;BME280;23175;-33.706;151.094;2023-03-01T07:56:18;99202.85;;;19.31;55.42
37291;BME280;23175;-33.706;151.094;2023-03-01T07:58:48;99210.50;;;19.26;56.29
37291;BME280;23175;-33.706;151.094;2023-03-01T08:01:21;99213.58;;;17.43;58.95
37291;BME280;23175;-33.706;151.094;2023-03-01T08:03:51;99222.92;;;19.49;56.34
37291;BME280;23175;-33.706;151.094;2023-03-01T08:06:21;99227.26;;;19.66;55.14
37291;BME280;23175;-33.706;151.094;2023-03-01T08:08:51;99229.58;;;21.72;50.90
37291;BME280;23175;-33.706;151.094;2023-03-01T08:11:21;99238.55;;;20.14;53.86
37291;BME280;23175;-33.706;151.094;2023-03-01T08:13:51;99241.25;;;19.10;56.03
37291;BME280;23175;-33.706;151.094;2023-03-01T08:16:21;99248.72;;;18.15;57.96
37291;BME280;23175;-33.706;151.094;2023-03-01T08:18:52;99261.48;;;18.26;57.70
37291;BME280;23175;-33.706;151.094;2023-03-01T08:21:22;99258.65;;;18.20;58.91
37291;BME280;23175;-33.706;151.094;2023-03-01T08:23:51;99265.38;;;19.18;55.88
37291;BME280;23175;-33.706;151.094;2023-03-01T08:26:22;99271.96;;;19.05;57.13
37291;BME280;23175;-33.706;151.094;2023-03-01T08:28:52;99268.89;;;21.97;50.91
37291;BME280;23175;-33.706;151.094;2023-03-01T08:31:25;99278.25;;;18.97;57.69
37291;BME280;23175;-33.706;151.094;2023-03-01T08:33:56;99281.48;;;20.39;53.51
37291;BME280;23175;-33.706;151.094;2023-03-01T08:36:29;99287.10;;;18.60;56.89
37291;BME280;23175;-33.706;151.094;2023-03-01T08:39:00;99292.62;;;19.32;55.48
37291;BME280;23175;-33.706;151.094;2023-03-01T08:41:31;99291.97;;;19.31;55.51
37291;BME280;23175;-33.706;151.094;2023-03-01T08:44:00;99302.32;;;18.77;56.84
37291;BME280;23175;-33.706;151.094;2023-03-01T08:46:33;99307.82;;;19.20;56.12
37291;BME280;23175;-33.706;151.094;2023-03-01T08:49:06;99307.99;;;18.42;57.65
37291;BME280;23175;-33.706;151.094;2023-03-01T08:51:37;99308.96;;;19.86;54.53
37291;BME280;23175;-33.706;151.094;2023-03-01T08:54:11;99313.05;;;19.65;54.27
37291;BME280;23175;-33.706;151.094;2023-03-01T08:56:42;99315.67;;;19.77;55.17
37291;BME280;23175;-33.706;151.094;2023-03-01T08:59:14;99319.29;;;18.02;57.78
37291;BME280;23175;-33.706;151.094;2023-03-01T09:01:45;99328.44;;;18.90;56.12
37291;BME280;23175;-33.706;151.094;2023-03-01T09:04:16;99332.23;;;20.01;54.16
37291;BME280;23175;-33.706;151.094;2023-03-01T09:06:46;99335.55;;;18.28;57.19
37291;BME280;23175;-33.706;151.094;2023-03-01T09:09:17;99342.18;;;18.73;56.54
37291;BME280;23175;-33.706;151.094;2023-03-01T09:11:48;99342.72;;;19.24;55.84
37291;BME280;23175;-33.706;151.094;2023-03-01T09:14:18;99347.74;;;18.70;56.46
37291;BME280;23175;-33.706;151.094;2023-03-01T09:16:48;99351.11;;;18.45;57.54
37291;BME280;23175;-33.706;151.094;2023-03-01T09:19:18;99355.44;;;20.74;53.09
37291;BME280;23175;-33.706;151.094;2023-03-01T09:21:49;99359.68;;;18.00;57.58
37291;BME280;23175;-33.706;151.094;2023-03-01T09:24:21;99368.39;;;18.98;56.28
37291;BME280;23175;-33.706;151.094;2023-03-01T09:26:54;99367.60;;;18.75;56.17
37291;BME280;23175;-33.706;151.094;2023-03-01T09:29:25;99377.38;;;18.69;56.21
37291;BME280;23175;-33.706;151.094;2023-03-01T09:31:56;99378.10;;;19.22;55.95
37291;BME280;23175;-33.706;151.094;2023-03-01T09:34:26;99383.63;;;19.62;54.69
37291;BME280;23175;-33.706;151.094;2023-03-01T09:36:58;99390.37;;;18.18;57.31
37291;BME280;23175;-33.706;151.094;2023-03-01T09:39:29;99393.46;;;19.75;54.42
37291;BME280;23175;-33.706;151.094;2023-03-01T09:42:02;99397.53;;;21.43;51.60
37291;BME280;23175;-33.706;151.094;2023-03-01T09:44:38;99396.23;;;22.48;48.83
37291;BME280;23175;-33.706;151.094;2023-03-01T09:47:16;99402.72;;;20.88;51.19
37291;BME280;23175;-33.706;151.094;2023-03-01T09:49:53;99405.15;;;21.00;50.78
37291;BME280;23175;-33.706;151.094;2023-03-01T09:52:34;99413.90;;;19.88;52.76
37291;BME280;23175;-33.706;151.094;2023-03-01T09:55:12;99415.22;;;20.76;51.92
37291;BME280;23175;-33.706;151.094;2023-03-01T09:57:48;99422.08;;;19.10;54.14
37291;BME280;23175;-33.706;151.094;2023-03-01T10:00:29;99424.63;;;19.39;54.82
37291;BME280;23175;-33.706;151.094;2023-03-01T10:03:11;99425.83;;;18.67;56.79
37291;BME280;23175;-33.706;151.094;2023-03-01T10:05:50;99425.01;;;21.16;52.07
37291;BME280;23175;-33.706;151.094;2023-03-01T10:08:29;99429.01;;;20.17;52.83
37291;BME280;23175;-33.706;151.094;2023-03-01T10:11:02;99428.97;;;19.89;53.63
37291;BME280;23175;-33.706;151.094;2023-03-01T10:13:42;99427.87;;;17.84;56.67
37291;BME280;23175;-33.706;151.094;2023-03-01T10:16:18;99431.19;;;18.71;55.35
37291;BME280;23175;-33.706;151.094;2023-03-01T10:18:54;99430.98;;;19.87;53.21
37291;BME280;23175;-33.706;151.094;2023-03-01T10:21:28;99433.39;;;20.77;52.24
37291;BME280;23175;-33.706;151.094;2023-03-01T10:24:08;99437.11;;;21.75;49.69
37291;BME280;23175;-33.706;151.094;2023-03-01T10:26:48;99442.35;;;20.23;52.05
37291;BME280;23175;-33.706;151.094;2023-03-01T10:29:23;99446.14;;;18.63;55.77
37291;BME280;23175;-33.706;151.094;2023-03-01T10:31:55;99447.81;;;21.32;51.37
37291;BME280;23175;-33.706;151.094;2023-03-01T10:34:32;99452.90;;;20.25;53.83
37291;BME280;23175;-33.706;151.094;2023-03-01T10:37:13;99454.28;;;18.99;55.45
37291;BME280;23175;-33.706;151.094;2023-03-01T10:40:02;99458.49;;;19.41;53.81
37291;BME280;23175;-33.706;151.094;2023-03-01T10:42:35;99460.00;;;20.07;52.34
37291;BME280;23175;-33.706;151.094;2023-03-01T10:45:26;99459.45;;;19.53;53.99
37291;BME280;23175;-33.706;151.094;2023-03-01T10:48:12;99466.24;;;19.47;54.60
37291;BME280;23175;-33.706;151.094;2023-03-01T10:50:44;99465.43;;;19.14;54.72
37291;BME280;23175;-33.706;151.094;2023-03-01T10:53:27;99470.19;;;19.88;53.43
37291;BME280;23175;-33.706;151.094;2023-03-01T10:56:00;99469.35;;;18.52;56.13
37291;BME280;23175;-33.706;151.094;2023-03-01T10:58:32;99472.05;;;21.33;51.57
37291;BME280;23175;-33.706;151.094;2023-03-01T11:01:05;99476.24;;;19.77;54.96
37291;BME280;23175;-33.706;151.094;2023-03-01T11:03:38;99478.45;;;20.71;53.77
37291;BME280;23175;-33.706;151.094;2023-03-01T11:06:21;99478.08;;;21.90;52.22
37291;BME280;23175;-33.706;151.094;2023-03-01T11:08:52;99481.02;;;20.13;55.38
37291;BME280;23175;-33.706;151.094;2023-03-01T11:11:31;99478.96;;;21.71;52.51
37291;BME280;23175;-33.706;151.094;2023-03-01T11:14:05;99480.18;;;23.60;49.61
37291;BME280;23175;-33.706;151.094;2023-03-01T11:16:37;99479.97;;;23.84;49.23
37291;BME280;23175;-33.706;151.094;2023-03-01T11:19:21;99481.96;;;24.23;48.75
37291;BME280;23175;-33.706;151.094;2023-03-01T11:21:58;99482.50;;;23.93;47.74
37291;BME280;23175;-33.706;151.094;2023-03-01T11:24:36;99479.72;;;24.04;47.98
37291;BME280;23175;-33.706;151.094;2023-03-01T11:27:16;99480.76;;;23.33;49.20
37291;BME280;23175;-33.706;151.094;2023-03-01T11:29:52;99481.20;;;23.54;48.19
37291;BME280;23175;-33.706;151.094;2023-03-01T11:32:28;99483.04;;;24.43;48.09
37291;BME280;23175;-33.706;151.094;2023-03-01T11:35:05;99484.70;;;24.21;47.81
37291;BME280;23175;-33.706;151.094;2023-03-01T11:37:44;99482.69;;;23.81;48.13
37291;BME280;23175;-33.706;151.094;2023-03-01T11:40:25;99481.58;;;23.34;48.50
37291;BME280;23175;-33.706;151.094;2023-03-01T11:43:03;99483.31;;;23.98;47.67
37291;BME280;23175;-33.706;151.094;2023-03-01T11:45:47;99482.86;;;21.09;52.04
37291;BME280;23175;-33.706;151.094;2023-03-01T11:48:35;99483.94;;;23.14;50.00
37291;BME280;23175;-33.706;151.094;2023-03-01T11:51:13;99485.02;;;23.45;48.52
37291;BME280;23175;-33.706;151.094;2023-03-01T11:53:57;99484.90;;;23.99;47.55
37291;BME280;23175;-33.706;151.094;2023-03-01T11:56:36;99487.63;;;24.44;47.18
37291;BME280;23175;-33.706;151.094;2023-03-01T11:59:58;99492.99;;;23.80;47.01
37291;BME280;23175;-33.706;151.094;2023-03-01T12:02:54;99491.29;;;23.66;47.01
37291;BME280;23175;-33.706;151.094;2023-03-01T12:05:46;99493.17;;;24.43;46.52
37291;BME280;23175;-33.706;151.094;2023-03-01T12:08:23;99493.76;;;24.11;46.98
37291;BME280;23175;-33.706;151.094;2023-03-01T12:11:06;99494.32;;;22.77;49.40
37291;BME280;23175;-33.706;151.094;2023-03-01T12:16:49;99495.21;;;21.46;50.86
37291;BME280;23175;-33.706;151.094;2023-03-01T12:19:36;99494.02;;;22.71;49.64
37291;BME280;23175;-33.706;151.094;2023-03-01T12:22:20;99495.59;;;22.59;50.45
37291;BME280;23175;-33.706;151.094;2023-03-01T12:26:01;99492.68;;;20.11;54.69
37291;BME280;23175;-33.706;151.094;2023-03-01T12:28:48;99488.86;;;22.36;50.56
37291;BME280;23175;-33.706;151.094;2023-03-01T12:32:51;99486.15;;;23.26;49.23
37291;BME280;23175;-33.706;151.094;2023-03-01T12:36:15;99486.85;;;23.21;48.62
37291;BME280;23175;-33.706;151.094;2023-03-01T12:39:04;99483.32;;;23.38;48.08
37291;BME280;23175;-33.706;151.094;2023-03-01T12:41:47;99484.10;;;24.05;46.27
37291;BME280;23175;-33.706;151.094;2023-03-01T12:44:30;99484.48;;;23.91;46.39
37291;BME280;23175;-33.706;151.094;2023-03-01T12:47:13;99486.11;;;23.65;47.33
37291;BME280;23175;-33.706;151.094;2023-03-01T12:49:51;99486.05;;;23.80;46.98
37291;BME280;23175;-33.706;151.094;2023-03-01T12:52:27;99485.63;;;23.84;47.09
37291;BME280;23175;-33.706;151.094;2023-03-01T12:55:00;99488.02;;;22.72;49.46
37291;BME280;23175;-33.706;151.094;2023-03-01T12:57:36;99486.60;;;23.53;47.40
37291;BME280;23175;-33.706;151.094;2023-03-01T13:00:23;99488.87;;;23.79;46.75
37291;BME280;23175;-33.706;151.094;2023-03-01T13:03:02;99488.97;;;23.86;46.50
37291;BME280;23175;-33.706;151.094;2023-03-01T13:05:41;99492.56;;;24.13;46.04
37291;BME280;23175;-33.706;151.094;2023-03-01T13:08:19;99492.16;;;24.18;45.87